sensor_id;sensor_type;location;lat;lon;timestamp;pressure;altitude;pressure_sealevel;temperature;humidity
12759;BME280;20944;47.048;15.390;2023-11-19T00:01:35;98104.94;;;4.68;88.75
12759;BME280;20944;47.048;15.390;2023-11-19T00:04:04;98090.22;;;4.60;89.44
12759;BME280;20944;47.048;15.390;2023-11-19T00:06:32;98083.31;;;4.61;89.36
12759;BME280;20944;47.048;15.390;2023-11-19T00:09:02;98081.56;;;4.63;90.31
12759;BME280;20944;47.048;15.390;2023-11-19T00:11:31;98078.97;;;4.65;89.57
12759;BME280;20944;47.048;15.390;2023-11-19T00:14:01;98079.88;;;4.74;89.63
12759;BME280;20944;47.048;15.390;2023-11-19T00:16:29;98079.03;;;4.80;90.05
12759;BME280;20944;47.048;15.390;2023-11-19T00:18:59;98044.38;;;4.67;90.01
12759;BME280;20944;47.048;15.390;2023-11-19T00:21:27;98073.81;;;4.77;90.61
12759;BME280;20944;47.048;15.390;2023-11-19T00:23:56;98078.16;;;4.79;91.16
12759;BME280;20944;47.048;15.390;2023-11-19T00:26:26;98060.84;;;4.83;90.86
12759;BME280;20944;47.048;15.390;2023-11-19T00:28:55;98051.34;;;4.80;91.64
12759;BME280;20944;47.048;15.390;2023-11-19T00:31:24;98050.47;;;4.78;91.64
12759;BME280;20944;47.048;15.390;2023-11-19T00:33:53;98062.59;;;4.84;90.77
12759;BME280;20944;47.048;15.390;2023-11-19T00:36:22;98081.63;;;4.87;89.21
12759;BME280;20944;47.048;15.390;2023-11-19T00:38:51;98080.78;;;4.92;90.25
12759;BME280;20944;47.048;15.390;2023-11-19T00:41:20;98050.41;;;4.58;90.80
12759;BME280;20944;47.048;15.390;2023-11-19T00:43:51;98064.28;;;4.59;92.78
12759;BME280;20944;47.048;15.390;2023-11-19T00:46:19;98058.22;;;4.60;93.24
12759;BME280;20944;47.048;15.390;2023-11-19T00:48:47;98048.69;;;4.53;93.48
12759;BME280;20944;47.048;15.390;2023-11-19T00:51:15;98064.28;;;4.71;90.59
12759;BME280;20944;47.048;15.390;2023-11-19T00:53:44;98052.16;;;4.70;88.72
12759;BME280;20944;47.048;15.390;2023-11-19T00:56:11;98022.75;;;4.53;89.02
12759;BME280;20944;47.048;15.390;2023-11-19T00:58:40;98028.78;;;4.56;87.57
12759;BME280;20944;47.048;15.390;2023-11-19T01:01:11;97995.88;;;4.45;87.13
12759;BME280;20944;47.048;15.390;2023-11-19T01:03:40;98020.13;;;4.64;87.62
12759;BME280;20944;47.048;15.390;2023-11-19T01:06:08;98038.34;;;4.67;87.18
12759;BME280;20944;47.048;15.390;2023-11-19T01:08:36;98042.66;;;4.68;88.80
12759;BME280;20944;47.048;15.390;2023-11-19T01:11:05;98052.19;;;4.79;88.23
12759;BME280;20944;47.048;15.390;2023-11-19T01:13:33;98059.13;;;4.79;87.13
12759;BME280;20944;47.048;15.390;2023-11-19T01:16:01;98053.03;;;4.77;88.06
12759;BME280;20944;47.048;15.390;2023-11-19T01:18:31;98043.53;;;4.73;87.88
12759;BME280;20944;47.048;15.390;2023-11-19T01:21:00;98036.63;;;4.78;88.25
12759;BME280;20944;47.048;15.390;2023-11-19T01:23:28;98021.91;;;4.72;88.85
12759;BME280;20944;47.048;15.390;2023-11-19T01:25:56;98021.88;;;4.71;89.24
12759;BME280;20944;47.048;15.390;2023-11-19T01:28:25;98018.44;;;4.76;88.56
12759;BME280;20944;47.048;15.390;2023-11-19T01:30:53;97971.66;;;4.38;88.21
12759;BME280;20944;47.048;15.390;2023-11-19T01:33:21;98009.78;;;4.77;88.32
12759;BME280;20944;47.048;15.390;2023-11-19T01:35:51;98005.44;;;4.76;88.10
12759;BME280;20944;47.048;15.390;2023-11-19T01:38:19;97994.22;;;4.83;87.45
12759;BME280;20944;47.048;15.390;2023-11-19T01:40:48;97999.41;;;4.82;87.55
12759;BME280;20944;47.048;15.390;2023-11-19T01:43:31;97988.16;;;4.81;86.51
12759;BME280;20944;47.048;15.390;2023-11-19T01:46:00;97982.97;;;4.81;86.33
12759;BME280;20944;47.048;15.390;2023-11-19T01:48:28;97969.13;;;4.61;87.03
12759;BME280;20944;47.048;15.390;2023-11-19T01:50:58;97976.94;;;4.78;86.58
12759;BME280;20944;47.048;15.390;2023-11-19T01:53:29;97959.59;;;4.65;86.84
12759;BME280;20944;47.048;15.390;2023-11-19T01:55:59;97965.66;;;4.80;86.23
12759;BME280;20944;47.048;15.390;2023-11-19T01:58:28;97972.59;;;4.78;86.87
12759;BME280;20944;47.048;15.390;2023-11-19T02:00:57;97976.91;;;4.76;87.19
12759;BME280;20944;47.048;15.390;2023-11-19T02:03:26;97961.34;;;4.79;87.42
12759;BME280;20944;47.048;15.390;2023-11-19T02:05:57;97937.97;;;4.81;85.82
12759;BME280;20944;47.048;15.390;2023-11-19T02:08:26;97937.97;;;4.81;86.58
12759;BME280;20944;47.048;15.390;2023-11-19T02:10:54;97937.09;;;4.77;87.59
12759;BME280;20944;47.048;15.390;2023-11-19T02:13:24;97924.13;;;4.71;87.87
12759;BME280;20944;47.048;15.390;2023-11-19T02:15:53;97931.03;;;4.77;88.22
12759;BME280;20944;47.048;15.390;2023-11-19T02:18:23;97919.81;;;4.72;88.00
12759;BME280;20944;47.048;15.390;2023-11-19T02:20:55;97921.53;;;4.71;88.10
12759;BME280;20944;47.048;15.390;2023-11-19T02:23:26;97916.34;;;4.70;88.22
12759;BME280;20944;47.048;15.390;2023-11-19T02:26:02;97912.03;;;4.67;88.75
12759;BME280;20944;47.048;15.390;2023-11-19T02:28:34;97904.25;;;4.61;88.87
12759;BME280;20944;47.048;15.390;2023-11-19T02:31:04;97899.91;;;4.58;89.88
12759;BME280;20944;47.048;15.390;2023-11-19T02:33:37;97908.56;;;4.54;89.93
12759;BME280;20944;47.048;15.390;2023-11-19T02:36:06;97908.53;;;4.51;91.97
12759;BME280;20944;47.048;15.390;2023-11-19T02:38:36;97905.94;;;4.51;92.72
12759;BME280;20944;47.048;15.390;2023-11-19T02:41:05;97910.28;;;4.51;93.66
12759;BME280;20944;47.048;15.390;2023-11-19T02:43:37;97905.09;;;4.51;94.23
12759;BME280;20944;47.048;15.390;2023-11-19T02:46:06;97910.28;;;4.46;94.77
12759;BME280;20944;47.048;15.390;2023-11-19T02:48:38;97899.03;;;4.49;94.74
12759;BME280;20944;47.048;15.390;2023-11-19T02:51:06;97891.25;;;4.43;96.07
12759;BME280;20944;47.048;15.390;2023-11-19T02:53:37;97876.53;;;4.39;96.46
12759;BME280;20944;47.048;15.390;2023-11-19T02:56:07;97873.94;;;4.37;97.24
12759;BME280;20944;47.048;15.390;2023-11-19T02:58:48;97874.81;;;4.35;97.03
12759;BME280;20944;47.048;15.390;2023-11-19T03:01:22;97866.19;;;4.34;97.41
12759;BME280;20944;47.048;15.390;2023-11-19T03:03:58;97865.31;;;4.38;98.02
12759;BME280;20944;47.048;15.390;2023-11-19T03:06:29;97867.88;;;4.40;98.49
12759;BME280;20944;47.048;15.390;2023-11-19T03:08:57;97860.09;;;4.33;99.51
12759;BME280;20944;47.048;15.390;2023-11-19T03:11:25;97862.69;;;4.33;98.83
12759;BME280;20944;47.048;15.390;2023-11-19T03:13:55;97860.13;;;4.43;98.68
12759;BME280;20944;47.048;15.390;2023-11-19T03:16:23;97862.69;;;4.40;99.35
12759;BME280;20944;47.048;15.390;2023-11-19T03:18:52;97832.44;;;4.31;99.34
12759;BME280;20944;47.048;15.390;2023-11-19T03:21:27;97852.34;;;4.43;99.85
12759;BME280;20944;47.048;15.390;2023-11-19T03:23:55;97847.16;;;4.41;100.00
12759;BME280;20944;47.048;15.390;2023-11-19T03:26:26;97852.34;;;4.43;100.00
12759;BME280;20944;47.048;15.390;2023-11-19T03:28:56;97841.94;;;4.40;100.00
12759;BME280;20944;47.048;15.390;2023-11-19T03:31:24;97835.03;;;4.37;100.00
12759;BME280;20944;47.048;15.390;2023-11-19T03:33:53;97820.34;;;4.38;100.00
12759;BME280;20944;47.048;15.390;2023-11-19T03:36:25;97824.69;;;4.34;100.00
12759;BME280;20944;47.048;15.390;2023-11-19T03:38:53;97750.34;;;3.90;100.00
12759;BME280;20944;47.048;15.390;2023-11-19T03:41:21;97798.72;;;4.20;100.00
12759;BME280;20944;47.048;15.390;2023-11-19T03:43:50;97810.84;;;4.23;100.00
12759;BME280;20944;47.048;15.390;2023-11-19T03:46:20;97791.81;;;4.19;100.00
12759;BME280;20944;47.048;15.390;2023-11-19T03:48:49;97795.28;;;4.23;100.00
12759;BME280;20944;47.048;15.390;2023-11-19T03:51:17;97783.19;;;4.10;100.00
12759;BME280;20944;47.048;15.390;2023-11-19T03:53:46;97789.22;;;4.10;100.00
12759;BME280;20944;47.048;15.390;2023-11-19T03:56:14;97714.91;;;3.74;100.00
12759;BME280;20944;47.048;15.390;2023-11-19T03:58:42;97771.94;;;3.95;100.00
12759;BME280;20944;47.048;15.390;2023-11-19T04:01:11;97764.16;;;3.94;100.00
12759;BME280;20944;47.048;15.390;2023-11-19T04:03:42;97716.63;;;3.64;100.00
12759;BME280;20944;47.048;15.390;2023-11-19T04:06:14;97785.75;;;4.06;100.00
12759;BME280;20944;47.048;15.390;2023-11-19T04:08:42;97790.94;;;4.05;100.00
12759;BME280;20944;47.048;15.390;2023-11-19T04:11:10;97696.75;;;3.57;100.00
12759;BME280;20944;47.048;15.390;2023-11-19T04:13:39;97757.25;;;3.99;100.00
12759;BME280;20944;47.048;15.390;2023-11-19T04:16:08;97759.81;;;4.02;100.00
12759;BME280;20944;47.048;15.390;2023-11-19T04:18:36;97742.56;;;3.81;100.00
12759;BME280;20944;47.048;15.390;2023-11-19T04:21:07;97767.59;;;3.94;100.00
12759;BME280;20944;47.048;15.390;2023-11-19T04:23:35;97763.31;;;3.98;100.00
12759;BME280;20944;47.048;15.390;2023-11-19T04:26:04;97754.66;;;3.97;100.00
12759;BME280;20944;47.048;15.390;2023-11-19T04:28:36;97752.94;;;3.98;100.00
12759;BME280;20944;47.048;15.390;2023-11-19T04:31:05;97752.91;;;3.95;100.00
12759;BME280;20944;47.048;15.390;2023-11-19T04:33:33;97749.47;;;4.02;100.00
12759;BME280;20944;47.048;15.390;2023-11-19T04:36:02;97747.75;;;3.96;100.00
12759;BME280;20944;47.048;15.390;2023-11-19T04:38:32;97691.59;;;3.62;100.00
12759;BME280;20944;47.048;15.390;2023-11-19T04:41:00;97762.44;;;4.03;100.00
12759;BME280;20944;47.048;15.390;2023-11-19T04:43:29;97671.72;;;3.47;100.00
12759;BME280;20944;47.048;15.390;2023-11-19T04:45:58;97741.69;;;3.79;100.00
12759;BME280;20944;47.048;15.390;2023-11-19T04:48:26;97747.72;;;3.70;100.00
12759;BME280;20944;47.048;15.390;2023-11-19T04:51:08;97751.19;;;3.66;100.00
12759;BME280;20944;47.048;15.390;2023-11-19T04:53:38;97745.13;;;3.60;100.00
12759;BME280;20944;47.048;15.390;2023-11-19T04:56:10;97747.72;;;3.60;100.00
12759;BME280;20944;47.048;15.390;2023-11-19T04:58:40;97745.09;;;3.57;100.00
12759;BME280;20944;47.048;15.390;2023-11-19T05:01:13;97649.22;;;3.03;100.00
12759;BME280;20944;47.048;15.390;2023-11-19T05:03:43;97719.19;;;3.58;100.00
12759;BME280;20944;47.048;15.390;2023-11-19T05:06:12;97726.16;;;3.71;100.00
12759;BME280;20944;47.048;15.390;2023-11-19T05:08:44;97731.31;;;3.65;100.00
12759;BME280;20944;47.048;15.390;2023-11-19T05:11:12;97722.66;;;3.62;100.00
12759;BME280;20944;47.048;15.390;2023-11-19T05:13:44;97720.06;;;3.54;100.00
12759;BME280;20944;47.048;15.390;2023-11-19T05:16:13;97690.69;;;3.37;100.00
12759;BME280;20944;47.048;15.390;2023-11-19T05:18:42;97526.63;;;2.51;100.00
12759;BME280;20944;47.048;15.390;2023-11-19T05:21:10;97706.25;;;3.61;100.00
12759;BME280;20944;47.048;15.390;2023-11-19T05:23:39;97677.75;;;3.58;100.00
12759;BME280;20944;47.048;15.390;2023-11-19T05:26:17;97692.44;;;3.67;100.00
12759;BME280;20944;47.048;15.390;2023-11-19T05:28:46;97688.13;;;3.64;100.00
12759;BME280;20944;47.048;15.390;2023-11-19T05:31:15;97658.78;;;3.61;100.00
12759;BME280;20944;47.048;15.390;2023-11-19T05:33:44;97689.88;;;3.65;100.00
12759;BME280;20944;47.048;15.390;2023-11-19T05:36:13;97686.41;;;3.68;100.00
12759;BME280;20944;47.048;15.390;2023-11-19T05:38:41;97686.41;;;3.72;100.00
12759;BME280;20944;47.048;15.390;2023-11-19T05:41:10;97699.38;;;3.78;100.00
12759;BME280;20944;47.048;15.390;2023-11-19T05:43:39;97704.53;;;3.75;100.00
12759;BME280;20944;47.048;15.390;2023-11-19T05:46:08;97704.53;;;3.75;100.00
12759;BME280;20944;47.048;15.390;2023-11-19T05:48:39;97684.66;;;3.68;100.00
12759;BME280;20944;47.048;15.390;2023-11-19T05:51:07;97684.69;;;3.73;100.00
12759;BME280;20944;47.048;15.390;2023-11-19T05:53:35;97668.28;;;3.66;100.00
12759;BME280;20944;47.048;15.390;2023-11-19T05:56:04;97683.81;;;3.86;100.00
12759;BME280;20944;47.048;15.390;2023-11-19T05:58:38;97676.88;;;3.96;100.00
12759;BME280;20944;47.048;15.390;2023-11-19T06:01:07;97665.69;;;3.78;100.00
12759;BME280;20944;47.048;15.390;2023-11-19T06:03:35;97662.22;;;3.73;100.00
12759;BME280;20944;47.048;15.390;2023-11-19T06:06:06;97658.75;;;3.76;100.00
12759;BME280;20944;47.048;15.390;2023-11-19T06:08:34;97660.47;;;3.89;100.00
12759;BME280;20944;47.048;15.390;2023-11-19T06:11:04;97656.13;;;3.96;100.00
12759;BME280;20944;47.048;15.390;2023-11-19T06:13:32;97659.63;;;3.87;100.00
12759;BME280;20944;47.048;15.390;2023-11-19T06:16:02;97647.53;;;3.83;100.00
12759;BME280;20944;47.048;15.390;2023-11-19T06:18:31;97651.81;;;3.95;100.00
12759;BME280;20944;47.048;15.390;2023-11-19T06:20:59;97661.34;;;3.94;100.00
12759;BME280;20944;47.048;15.390;2023-11-19T06:23:27;97663.06;;;3.88;100.00
12759;BME280;20944;47.048;15.390;2023-11-19T06:25:56;97673.44;;;3.75;100.00
12759;BME280;20944;47.048;15.390;2023-11-19T06:28:24;97663.97;;;3.77;100.00
12759;BME280;20944;47.048;15.390;2023-11-19T06:30:53;97665.66;;;3.82;100.00
12759;BME280;20944;47.048;15.390;2023-11-19T06:33:22;97656.19;;;3.68;100.00
12759;BME280;20944;47.048;15.390;2023-11-19T06:35:52;97652.72;;;3.75;100.00
12759;BME280;20944;47.048;15.390;2023-11-19T06:38:22;97645.81;;;3.73;100.00
12759;BME280;20944;47.048;15.390;2023-11-19T06:40:51;97649.25;;;3.89;100.00
12759;BME280;20944;47.048;15.390;2023-11-19T06:43:20;97643.19;;;3.94;100.00
12759;BME280;20944;47.048;15.390;2023-11-19T06:45:49;97648.38;;;4.00;100.00
12759;BME280;20944;47.048;15.390;2023-11-19T06:48:17;97646.63;;;4.10;100.00
12759;BME280;20944;47.048;15.390;2023-11-19T06:50:46;97609.53;;;3.87;100.00
12759;BME280;20944;47.048;15.390;2023-11-19T06:53:15;97643.16;;;4.17;100.00
12759;BME280;20944;47.048;15.390;2023-11-19T06:55:43;97637.94;;;4.25;100.00
12759;BME280;20944;47.048;15.390;2023-11-19T06:58:11;97643.13;;;4.26;100.00
12759;BME280;20944;47.048;15.390;2023-11-19T07:00:40;97640.56;;;4.23;100.00
12759;BME280;20944;47.048;15.390;2023-11-19T07:03:08;97661.28;;;4.36;100.00
12759;BME280;20944;47.048;15.390;2023-11-19T07:05:37;97659.53;;;4.41;100.00
12759;BME280;20944;47.048;15.390;2023-11-19T07:08:07;97657.75;;;4.49;100.00
12759;BME280;20944;47.048;15.390;2023-11-19T07:10:36;97658.63;;;4.49;100.00
12759;BME280;20944;47.048;15.390;2023-11-19T07:13:04;97670.66;;;4.64;100.00
12759;BME280;20944;47.048;15.390;2023-11-19T07:15:33;97662.00;;;4.68;100.00
12759;BME280;20944;47.048;15.390;2023-11-19T07:18:01;97662.91;;;4.61;100.00
12759;BME280;20944;47.048;15.390;2023-11-19T07:20:30;97643.00;;;4.63;100.00
12759;BME280;20944;47.048;15.390;2023-11-19T07:23:00;97648.19;;;4.68;100.00
12759;BME280;20944;47.048;15.390;2023-11-19T07:25:29;97650.72;;;4.77;100.00
12759;BME280;20944;47.048;15.390;2023-11-19T07:27:58;97649.84;;;4.81;100.00
12759;BME280;20944;47.048;15.390;2023-11-19T07:30:26;97678.34;;;4.88;100.00
12759;BME280;20944;47.048;15.390;2023-11-19T07:32:55;97632.53;;;4.84;100.00
12759;BME280;20944;47.048;15.390;2023-11-19T07:35:23;97634.22;;;4.90;100.00
12759;BME280;20944;47.048;15.390;2023-11-19T07:37:52;97610.03;;;4.82;100.00
12759;BME280;20944;47.048;15.390;2023-11-19T07:40:20;97578.91;;;4.79;100.00
12759;BME280;20944;47.048;15.390;2023-11-19T07:42:50;97559.84;;;4.81;100.00
12759;BME280;20944;47.048;15.390;2023-11-19T07:45:18;97588.44;;;4.75;100.00
12759;BME280;20944;47.048;15.390;2023-11-19T07:47:47;97623.91;;;4.75;100.00
12759;BME280;20944;47.048;15.390;2023-11-19T07:50:15;97621.38;;;4.64;100.00
12759;BME280;20944;47.048;15.390;2023-11-19T07:52:46;97566.25;;;4.16;100.00
12759;BME280;20944;47.048;15.390;2023-11-19T07:55:14;97607.66;;;4.31;100.00
12759;BME280;20944;47.048;15.390;2023-11-19T07:57:43;97632.69;;;4.43;100.00
12759;BME280;20944;47.048;15.390;2023-11-19T08:00:14;97616.25;;;4.49;100.00
12759;BME280;20944;47.048;15.390;2023-11-19T08:02:42;97613.69;;;4.47;100.00
12759;BME280;20944;47.048;15.390;2023-11-19T08:05:10;97412.78;;;3.19;100.00
12759;BME280;20944;47.048;15.390;2023-11-19T08:07:39;97632.66;;;4.55;100.00
12759;BME280;20944;47.048;15.390;2023-11-19T08:10:08;97642.16;;;4.61;100.00
12759;BME280;20944;47.048;15.390;2023-11-19T08:12:38;97594.59;;;4.59;100.00
12759;BME280;20944;47.048;15.390;2023-11-19T08:15:06;97626.41;;;4.95;100.00
12759;BME280;20944;47.048;15.390;2023-11-19T08:17:36;97628.94;;;5.05;100.00
12759;BME280;20944;47.048;15.390;2023-11-19T08:20:06;97638.44;;;5.08;100.00
12759;BME280;20944;47.048;15.390;2023-11-19T08:22:37;97651.38;;;5.17;100.00
12759;BME280;20944;47.048;15.390;2023-11-19T08:25:06;97621.09;;;5.13;100.00
12759;BME280;20944;47.048;15.390;2023-11-19T08:27:35;97614.16;;;5.17;100.00
12759;BME280;20944;47.048;15.390;2023-11-19T08:30:04;97614.84;;;5.41;100.00
12759;BME280;20944;47.048;15.390;2023-11-19T08:32:34;97601.69;;;5.63;99.37
12759;BME280;20944;47.048;15.390;2023-11-19T08:35:05;97592.13;;;5.65;97.75
12759;BME280;20944;47.048;15.390;2023-11-19T08:37:34;97577.38;;;5.68;97.46
12759;BME280;20944;47.048;15.390;2023-11-19T08:40:04;97593.59;;;5.98;96.42
12759;BME280;20944;47.048;15.390;2023-11-19T08:42:34;97601.38;;;5.97;94.73
12759;BME280;20944;47.048;15.390;2023-11-19T08:45:04;97602.16;;;6.06;95.40
12759;BME280;20944;47.048;15.390;2023-11-19T08:47:32;97583.88;;;6.14;94.05
12759;BME280;20944;47.048;15.390;2023-11-19T08:50:01;97595.50;;;5.75;94.33
12759;BME280;20944;47.048;15.390;2023-11-19T08:52:32;97568.06;;;6.32;94.08
12759;BME280;20944;47.048;15.390;2023-11-19T08:55:01;97574.03;;;6.39;94.26
12759;BME280;20944;47.048;15.390;2023-11-19T08:57:29;97568.78;;;6.43;93.99
12759;BME280;20944;47.048;15.390;2023-11-19T08:59:58;97571.09;;;6.66;93.60
12759;BME280;20944;47.048;15.390;2023-11-19T09:02:26;97560.47;;;6.82;91.71
12759;BME280;20944;47.048;15.390;2023-11-19T09:04:54;97551.63;;;6.93;90.55
12759;BME280;20944;47.048;15.390;2023-11-19T09:07:23;97558.38;;;7.07;89.32
12759;BME280;20944;47.048;15.390;2023-11-19T09:09:52;97568.75;;;7.08;88.48
12759;BME280;20944;47.048;15.390;2023-11-19T09:12:20;97570.44;;;7.12;89.76
12759;BME280;20944;47.048;15.390;2023-11-19T09:14:49;97572.00;;;7.22;88.74
12759;BME280;20944;47.048;15.390;2023-11-19T09:17:17;97571.13;;;7.25;88.82
12759;BME280;20944;47.048;15.390;2023-11-19T09:19:45;97537.38;;;7.16;88.75
12759;BME280;20944;47.048;15.390;2023-11-19T09:22:14;97556.25;;;7.32;87.61
12759;BME280;20944;47.048;15.390;2023-11-19T09:24:43;97545.81;;;7.32;87.94
12759;BME280;20944;47.048;15.390;2023-11-19T09:27:13;97534.56;;;7.28;89.64
12759;BME280;20944;47.048;15.390;2023-11-19T09:29:41;97527.50;;;7.36;90.35
12759;BME280;20944;47.048;15.390;2023-11-19T09:32:12;97534.47;;;7.36;90.71
12759;BME280;20944;47.048;15.390;2023-11-19T09:34:41;97544.00;;;7.37;92.34
12759;BME280;20944;47.048;15.390;2023-11-19T09:37:09;97515.47;;;7.27;92.84
12759;BME280;20944;47.048;15.390;2023-11-19T09:39:40;97517.81;;;7.44;91.58
12759;BME280;20944;47.048;15.390;2023-11-19T09:42:10;97528.78;;;7.63;90.37
12759;BME280;20944;47.048;15.390;2023-11-19T09:44:42;97531.22;;;7.71;88.98
12759;BME280;20944;47.048;15.390;2023-11-19T09:47:11;97518.09;;;7.77;89.46
12759;BME280;20944;47.048;15.390;2023-11-19T09:49:42;97491.88;;;7.83;89.79
12759;BME280;20944;47.048;15.390;2023-11-19T09:52:11;97491.78;;;7.89;88.00
12759;BME280;20944;47.048;15.390;2023-11-19T09:54:39;97508.97;;;7.98;86.89
12759;BME280;20944;47.048;15.390;2023-11-19T09:57:07;97508.81;;;8.07;86.03
12759;BME280;20944;47.048;15.390;2023-11-19T09:59:40;97512.91;;;8.20;85.12
12759;BME280;20944;47.048;15.390;2023-11-19T10:02:09;97510.91;;;8.33;85.13
12759;BME280;20944;47.048;15.390;2023-11-19T10:04:38;97501.75;;;8.54;84.18
12759;BME280;20944;47.048;15.390;2023-11-19T10:07:08;97481.13;;;8.43;83.36
12759;BME280;20944;47.048;15.390;2023-11-19T10:09:36;97482.91;;;8.41;84.04
12759;BME280;20944;47.048;15.390;2023-11-19T10:12:04;97469.09;;;8.34;83.27
12759;BME280;20944;47.048;15.390;2023-11-19T10:14:35;97458.91;;;8.24;83.46
12759;BME280;20944;47.048;15.390;2023-11-19T10:17:08;97452.66;;;8.29;83.33
12759;BME280;20944;47.048;15.390;2023-11-19T10:19:39;97448.00;;;8.45;84.38
12759;BME280;20944;47.048;15.390;2023-11-19T10:22:08;97430.78;;;8.35;82.07
12759;BME280;20944;47.048;15.390;2023-11-19T10:24:36;97440.13;;;8.47;81.00
12759;BME280;20944;47.048;15.390;2023-11-19T10:27:15;97448.69;;;8.55;80.20
12759;BME280;20944;47.048;15.390;2023-11-19T10:29:45;97448.69;;;8.53;79.64
12759;BME280;20944;47.048;15.390;2023-11-19T10:32:15;97438.59;;;8.38;79.68
12759;BME280;20944;47.048;15.390;2023-11-19T10:34:57;97432.25;;;8.48;80.13
12759;BME280;20944;47.048;15.390;2023-11-19T10:37:32;97420.03;;;8.50;80.23
12759;BME280;20944;47.048;15.390;2023-11-19T10:40:05;97405.84;;;8.62;78.56
12759;BME280;20944;47.048;15.390;2023-11-19T10:42:37;97413.75;;;8.59;79.21
12759;BME280;20944;47.048;15.390;2023-11-19T10:45:21;97404.38;;;8.50;81.67
12759;BME280;20944;47.048;15.390;2023-11-19T10:47:54;97414.63;;;8.58;81.22
12759;BME280;20944;47.048;15.390;2023-11-19T10:50:24;97402.91;;;8.76;81.10
12759;BME280;20944;47.048;15.390;2023-11-19T10:52:56;97407.81;;;8.88;79.92
12759;BME280;20944;47.048;15.390;2023-11-19T10:55:27;97410.44;;;8.88;77.43
12759;BME280;20944;47.048;15.390;2023-11-19T10:57:59;97393.97;;;8.84;80.21
12759;BME280;20944;47.048;15.390;2023-11-19T11:00:29;97382.09;;;8.71;79.23
12759;BME280;20944;47.048;15.390;2023-11-19T11:03:02;97391.16;;;8.94;76.86
12759;BME280;20944;47.048;15.390;2023-11-19T11:05:34;97390.69;;;9.10;78.21
12759;BME280;20944;47.048;15.390;2023-11-19T11:08:03;97360.13;;;9.14;76.26
12759;BME280;20944;47.048;15.390;2023-11-19T11:10:37;97389.81;;;9.44;77.93
12759;BME280;20944;47.048;15.390;2023-11-19T11:13:24;97386.69;;;9.62;77.66
12759;BME280;20944;47.048;15.390;2023-11-19T11:15:56;97386.25;;;9.78;74.25
12759;BME280;20944;47.048;15.390;2023-11-19T11:18:27;97392.00;;;9.90;73.25
12759;BME280;20944;47.048;15.390;2023-11-19T11:20:59;97396.88;;;10.03;72.70
12759;BME280;20944;47.048;15.390;2023-11-19T11:26:49;97384.47;;;10.09;72.02
12759;BME280;20944;47.048;15.390;2023-11-19T11:29:43;97374.44;;;10.25;70.78
12759;BME280;20944;47.048;15.390;2023-11-19T11:32:25;97361.28;;;10.26;70.56
12759;BME280;20944;47.048;15.390;2023-11-19T11:35:12;97332.03;;;10.12;70.11
12759;BME280;20944;47.048;15.390;2023-11-19T11:37:49;97362.03;;;10.58;70.13
12759;BME280;20944;47.048;15.390;2023-11-19T11:40:19;97358.19;;;10.68;68.51
12759;BME280;20944;47.048;15.390;2023-11-19T11:42:50;97339.63;;;10.74;68.82
12759;BME280;20944;47.048;15.390;2023-11-19T11:45:19;97338.16;;;10.94;69.32
12759;BME280;20944;47.048;15.390;2023-11-19T11:48:09;97337.22;;;10.95;70.81
12759;BME280;20944;47.048;15.390;2023-11-19T11:50:56;97328.31;;;11.00;65.98
12759;BME280;20944;47.048;15.390;2023-11-19T11:53:26;97332.38;;;11.09;65.63
12759;BME280;20944;47.048;15.390;2023-11-19T11:56:00;97315.94;;;11.04;65.68
12759;BME280;20944;47.048;15.390;2023-11-19T11:58:31;97333.50;;;11.27;65.13
12759;BME280;20944;47.048;15.390;2023-11-19T12:01:03;97315.75;;;11.33;65.88
12759;BME280;20944;47.048;15.390;2023-11-19T12:03:33;97316.19;;;11.46;64.69
12759;BME280;20944;47.048;15.390;2023-11-19T12:06:04;97312.06;;;11.62;63.44
12759;BME280;20944;47.048;15.390;2023-11-19T12:08:34;97309.03;;;11.73;63.36
12759;BME280;20944;47.048;15.390;2023-11-19T12:11:19;97294.09;;;11.75;62.33
12759;BME280;20944;47.048;15.390;2023-11-19T12:13:57;97304.97;;;11.90;62.24
12759;BME280;20944;47.048;15.390;2023-11-19T12:16:29;97285.44;;;11.97;62.14
12759;BME280;20944;47.048;15.390;2023-11-19T12:19:03;97277.09;;;12.09;61.09
12759;BME280;20944;47.048;15.390;2023-11-19T12:21:34;97294.25;;;12.39;61.57
12759;BME280;20944;47.048;15.390;2023-11-19T12:24:06;97292.50;;;12.60;60.67
12759;BME280;20944;47.048;15.390;2023-11-19T12:26:37;97280.38;;;12.78;59.01
12759;BME280;20944;47.048;15.390;2023-11-19T12:29:06;97301.94;;;13.07;58.49
12759;BME280;20944;47.048;15.390;2023-11-19T12:31:36;97244.47;;;12.98;58.82
12759;BME280;20944;47.048;15.390;2023-11-19T12:34:06;97278.41;;;13.24;57.42
12759;BME280;20944;47.048;15.390;2023-11-19T12:36:41;97254.00;;;13.00;57.58
12759;BME280;20944;47.048;15.390;2023-11-19T12:39:10;97280.91;;;13.27;58.50
12759;BME280;20944;47.048;15.390;2023-11-19T12:41:51;97282.19;;;13.37;57.83
12759;BME280;20944;47.048;15.390;2023-11-19T12:44:20;97282.84;;;13.42;57.64
12759;BME280;20944;47.048;15.390;2023-11-19T12:47:02;97282.19;;;13.58;57.19
12759;BME280;20944;47.048;15.390;2023-11-19T12:49:31;97268.22;;;13.74;56.99
12759;BME280;20944;47.048;15.390;2023-11-19T12:52:01;97268.31;;;13.92;55.71
12759;BME280;20944;47.048;15.390;2023-11-19T12:54:34;97272.34;;;14.18;54.38
12759;BME280;20944;47.048;15.390;2023-11-19T12:57:02;97280.19;;;14.37;54.40
12759;BME280;20944;47.048;15.390;2023-11-19T12:59:32;97268.94;;;14.69;54.16
12759;BME280;20944;47.048;15.390;2023-11-19T13:02:00;97276.09;;;15.02;52.72
12759;BME280;20944;47.048;15.390;2023-11-19T13:04:30;97265.41;;;15.71;49.80
12759;BME280;20944;47.048;15.390;2023-11-19T13:06:58;97267.38;;;16.92;48.14
12759;BME280;20944;47.048;15.390;2023-11-19T13:09:31;97268.19;;;18.23;44.58
12759;BME280;20944;47.048;15.390;2023-11-19T13:12:12;97265.75;;;19.77;41.41
12759;BME280;20944;47.048;15.390;2023-11-19T13:14:41;97223.53;;;19.73;39.92